Impacts TAF Board
For situational awareness. Not to be used for flight planning purposes.
IDs:

KCLE - Cleveland/Hopkins In, OH, US

Issued at 0543 UTC 21 Sep 2018
Updated at 0747 UTC 21 Sep 2018
Potential Impact None Slight Moderate High
Time0651Z 21/08Z 21/09Z 21/10Z 21/11Z 21/12Z 21/13Z 21/14Z 21/15Z 21/16Z 21/17Z 21/18Z 21/19Z 21/20Z>>
Type OBS PRVL PRVL PRVL PRVL PRVL PRVL PRVL PRVL PRVL PRVL PRVL PRVL
  [TEMP]  
PRVL
  [TEMP]  
VIS 10 >6 >6 >6 >6 >6 >6 >6 >6 >6 >6 >6 >6
  [2]  
>6
  [2]  
CIG -- -- -- -- -- -- -- -- -- -- 100 100 45
  [25]  
45
  [25]  
Cover CLR SKC SKC SKC SKC SKC SKC SKC SKC SKC BKN BKN OVC
  [OVC]  
OVC
  [OVC]  
FltCat VFR VFR VFR VFR VFR VFR VFR VFR VFR VFR VFR VFR VFR
  [IFR]  
VFR
  [IFR]  
WX -- -- -- -- -- -- -- -- -- -- -- -- VCTS
  [TSRA]  
VCTS
  [TSRA]  
WDir 200 190 190 190 190 190 190 190 190 190 220 220 240
[VRB]
240
[VRB]
WSpd 11 12 12 12 12 12 12 12 12 12 18 18 16
  [30]  
16
  [30]  
WGst -- 20 20 20 20 20 20 20 20 20 32 32 28
  [45]  
28
  [45]  
Raw TAF
KCLE 210543Z 2106/2212 19012G20KT P6SM SKC
  FM211700 22018G32KT P6SM SCT050 BKN100
  FM211900 24016G28KT P6SM VCTS SCT025CB OVC045
  TEMPO 2119/2121 VRB30G45KT 2SM TSRA OVC025CB
  FM212200 26015G25KT P6SM SCT025 BKN090
  FM220200 31015G25KT P6SM FEW050 SCT120


Raw METAR
KCLE 210651Z 20011KT 10SM CLR 26/21 A2999 RMK AO2 SLP148 T02560211
KCLE 210551Z 19010KT 10SM FEW200 26/21 A3000 RMK AO2 SLP150 T02560211 10272 20250 58004
KCLE 210451Z 18009KT 10SM FEW200 26/21 A3001 RMK AO2 SLP153 T02610211 403060156

METAR Board
Radar Display
Forecast Discussion
For situational awareness. Not to be used for flight planning purposes.